Details From KSAN - San Diego Intl
To YBMA - Mount Isa
Flight Number -
Tags Decoded
Created
Modified
Stats Distance 6,719 nm / 12,444 km
Max Altitude 0 ft / 0 m
Waypoints 10
Social Downloads 0
Likes 0
Share VATSIM

Download

Looking for another format? Having issues loading an existing format? Contact us
Advertisement - Login to hide

Notes

Decoded

Route

KSAN FEARS FIZEL JESOM AIREE NIXAM BO FERA ATNNM YBMA

ID Type Via Altitude Latitude Longitude Leg Dist Tot Dist Heading (true) Name
O KSAN APT - 0 ft / 0 m 32.73712˚ -117.20435˚ - 0 nm - -
FEARS FIX - 0 ft / 0 m 28.76000˚ -132.75986˚ 836 nm 836 nm 258° / 250° -
FIZEL FIX - 0 ft / 0 m 26.99500˚ -138.20500˚ 307 nm 1144 nm 251° / 249° -
JESOM FIX - 0 ft / 0 m 19.95525˚ -155.02825˚ 1017 nm 2161 nm 249° / 242° -
AIREE FIX - 0 ft / 0 m 11.91667˚ -169.55167˚ 966 nm 3128 nm 242° / 238° -
NIXAM FIX - 0 ft / 0 m 3.50000˚ 176.19333˚ 986 nm 4115 nm 240° / 238° -
BO NDB - 0 ft / 0 m 1.37722˚ 173.14278˚ 223 nm 4338 nm 235° / 235° -
FERA FIX - 0 ft / 0 m -8.10000˚ 159.57667˚ 991 nm 5330 nm 235° / 236° -
ATNNM FIX - 0 ft / 0 m -17.23731˚ 145.50138˚ 989 nm 6320 nm 235° / 238° -
O YBMA APT - 0 ft / 0 m -20.65894˚ 139.48442˚ 398 nm 6718 nm 238° / 240° -

Altitude Profile

Advertisement - Login to hide

Weather


0- 5 10 15 20 25 30 35+ Temperature / ° C

Clouds and Precipitation
Forecast for 2018-05-21 18:00 UTC. Updated 4 hours ago

Ground ~20,000 ft ~40,000 ft Winds

KSAN

Details ICAO KSAN (SAN)
Name San Diego Intl
Region United States
Timezone America/Los_Angeles (UTC-7.0)
Stats Elevation 17 ft / 5 m (AMSL)
Location 32.733556° -117.189658°
Runways 1
Magnetic Variation 11.488° E

METAR

KSAN 212051Z 20011KT 10SM SCT022 OVC027 16/12 A2993 RMK AO2 SLP134 T01610117 58002

Decode

TAF

TAF AMD KSAN 212102Z 2121/2224 21011KT P6SM OVC025 FM220300 23005KT P6SM OVC025 FM222000 28010KT P6SM SCT035

Decode

Departure Runways

ID Width Length Bearing (true) Bearing (mag) Surface Threshold Offset Overrun Length
09 200 ft / 61 m 9,387 ft / 2,861 m 106.07° 94.58° Asphalt 699 ft / 213 m 269 ft / 82 m
27 200 ft / 61 m 9,387 ft / 2,861 m 286.08° 274.59° Asphalt 1,811 ft / 552 m 0 ft / 0 m

YBMA

Details ICAO YBMA (ISA)
Name Mount Isa
Region Australia
Timezone Australia/Brisbane (UTC+10.0)
Stats Elevation 1,121 ft / 342 m (AMSL)
Location -20.666369° 139.488443°
Runways 1
Magnetic Variation 5.671° E

METAR

YBMA 212100Z AUTO 15009KT 9999 // NCD 16/M03 Q1022

Decode

TAF

Not found

Destination Runways

ID Width Length Bearing (true) Bearing (mag) Surface Threshold Offset Overrun Length
16 148 ft / 45 m 8,859 ft / 2,700 m 167.80° 162.13° Asphalt 210 ft / 64 m 79 ft / 24 m
34 148 ft / 45 m 8,859 ft / 2,700 m 347.80° 342.13° Asphalt 213 ft / 65 m 49 ft / 15 m

Popular Alternatives